CAL2073 RCTP-EHAM
Flight info
| Callsign | CAL2073 |
|---|---|
| Flight time | N/A |
| Altitude | 30000 |
| Route | CHALI1A CHALI T3 MKG A1 ELATO J101 PONTI DCT BEKOL/K0946S0920 A461 SHL W22 TEPID W24 OSNOV G586 QP B330 ELKAL W179 IGNAK/K0930S0950 W179 WFX/K0933S0920 W179 JTG/K0926S0980 W179 OMBON Y1 SADAN W186 KAMUD/K0906F340 L141 TISIB L163 SR N193 OGOLI T898 DARVA/N0489F340 B476 METKA L88 NIJAT N644 BADIR/N0483F360 N644 TETRO M10 SARPI UM10 GOKPA UL746 INB UW90 DEVMU UL852 NEGEM DCT DEGET DCT ALAMU DCT MAREG DCT KOVEL DCT DITIS DCT VARIK DCT KATCE DCT NORKU |
| Aircraft | B77W/H-SDE1E2E3FGHIJ2J3J4J5M1RWXY/LB1D1 |
Departure
| Time | N/A |
|---|---|
| Airport | Taiwan Taoyuan International Airport (RCTP) |
Arrival
| Time | 2026-04-29 07:01 |
|---|---|
| Airport | Amsterdam Airport Schiphol (EHAM) |
| Time | Latitude | Longitude | Altitude | Speed | Heading |
|---|---|---|---|---|---|
| 2026-04-29 01:05 | 41.24678 | 58.67001 | 30017 ft | 465 kts | 262° |
| 2026-04-29 01:06 | 41.24237 | 58.62657 | 30023 ft | 464 kts | 262° |
| 2026-04-29 01:06 | 41.23365 | 58.54115 | 30021 ft | 465 kts | 262° |
| 2026-04-29 01:07 | 41.22493 | 58.45644 | 30018 ft | 465 kts | 262° |
| 2026-04-29 01:07 | 41.21599 | 58.37018 | 30024 ft | 465 kts | 262° |
| 2026-04-29 01:08 | 41.20698 | 58.28390 | 30027 ft | 467 kts | 262° |
| 2026-04-29 01:08 | 41.19785 | 58.19714 | 30028 ft | 466 kts | 262° |
| 2026-04-29 01:09 | 41.18905 | 58.11410 | 30030 ft | 465 kts | 262° |
| 2026-04-29 01:09 | 41.17994 | 58.02865 | 30030 ft | 465 kts | 262° |
| 2026-04-29 01:10 | 41.17133 | 57.94843 | 30032 ft | 464 kts | 262° |
| 2026-04-29 01:10 | 41.16487 | 57.88861 | 30033 ft | 463 kts | 262° |
| 2026-04-29 01:11 | 41.15567 | 57.80393 | 30032 ft | 463 kts | 262° |
| 2026-04-29 01:11 | 41.14636 | 57.71889 | 30032 ft | 464 kts | 262° |
| 2026-04-29 01:12 | 41.13702 | 57.63412 | 30030 ft | 465 kts | 262° |
| 2026-04-29 01:12 | 41.12763 | 57.54941 | 30030 ft | 465 kts | 262° |
| 2026-04-29 01:13 | 41.11816 | 57.46468 | 30027 ft | 463 kts | 262° |
| 2026-04-29 01:13 | 41.10865 | 57.38011 | 30027 ft | 464 kts | 262° |
| 2026-04-29 01:14 | 41.09907 | 57.29555 | 30034 ft | 463 kts | 261° |
| 2026-04-29 01:14 | 41.08937 | 57.21041 | 30034 ft | 462 kts | 261° |
| 2026-04-29 01:15 | 41.07967 | 57.12588 | 30035 ft | 462 kts | 261° |
| 2026-04-29 01:15 | 41.06988 | 57.04115 | 30035 ft | 463 kts | 261° |
| 2026-04-29 01:16 | 41.06012 | 56.95726 | 30033 ft | 463 kts | 261° |
| 2026-04-29 01:16 | 41.05013 | 56.87190 | 30031 ft | 463 kts | 261° |
| 2026-04-29 01:17 | 41.04030 | 56.78848 | 30032 ft | 462 kts | 261° |
| 2026-04-29 01:17 | 41.03032 | 56.70425 | 30032 ft | 462 kts | 261° |
| 2026-04-29 01:18 | 41.02027 | 56.62014 | 30025 ft | 462 kts | 261° |
| 2026-04-29 01:18 | 41.00651 | 56.49367 | 30015 ft | 464 kts | 267° |
| 2026-04-29 01:19 | 41.00536 | 56.40804 | 30021 ft | 464 kts | 269° |
| 2026-04-29 01:19 | 41.00447 | 56.32281 | 30027 ft | 464 kts | 268° |
| 2026-04-29 01:20 | 41.00345 | 56.23688 | 30035 ft | 464 kts | 268° |
| 2026-04-29 01:20 | 41.00235 | 56.15155 | 30034 ft | 464 kts | 268° |
| 2026-04-29 01:21 | 41.00115 | 56.06517 | 30033 ft | 464 kts | 268° |
| 2026-04-29 01:21 | 40.99988 | 55.97915 | 30031 ft | 465 kts | 268° |
| 2026-04-29 01:22 | 40.99855 | 55.89364 | 30034 ft | 465 kts | 268° |
| 2026-04-29 01:22 | 40.99717 | 55.80840 | 30034 ft | 464 kts | 268° |
| 2026-04-29 01:23 | 40.99580 | 55.72300 | 30032 ft | 464 kts | 268° |
| 2026-04-29 01:23 | 40.99447 | 55.63743 | 30029 ft | 464 kts | 268° |
| 2026-04-29 01:24 | 40.99308 | 55.55229 | 30032 ft | 463 kts | 268° |
| 2026-04-29 01:24 | 40.99162 | 55.46693 | 30033 ft | 462 kts | 268° |
| 2026-04-29 01:25 | 40.99009 | 55.38121 | 30032 ft | 462 kts | 268° |
| 2026-04-29 01:25 | 40.98850 | 55.29594 | 30036 ft | 463 kts | 267° |
| 2026-04-29 01:26 | 40.98685 | 55.21048 | 30034 ft | 462 kts | 267° |
| 2026-04-29 01:26 | 40.98513 | 55.12535 | 30034 ft | 462 kts | 267° |
| 2026-04-29 01:27 | 40.98341 | 55.04239 | 30034 ft | 462 kts | 266° |
| 2026-04-29 01:27 | 40.98156 | 54.95710 | 30033 ft | 461 kts | 266° |
| 2026-04-29 01:28 | 40.97968 | 54.87262 | 30026 ft | 461 kts | 266° |
| 2026-04-29 01:28 | 40.97765 | 54.78804 | 30022 ft | 460 kts | 266° |
| 2026-04-29 01:29 | 40.97554 | 54.70301 | 30018 ft | 461 kts | 266° |
| 2026-04-29 01:29 | 40.97339 | 54.61868 | 30010 ft | 460 kts | 266° |
| 2026-04-29 01:30 | 40.97116 | 54.53350 | 30010 ft | 461 kts | 266° |
| 2026-04-29 01:30 | 40.96888 | 54.44906 | 30011 ft | 461 kts | 266° |
| 2026-04-29 01:31 | 40.96653 | 54.36406 | 30004 ft | 462 kts | 266° |
| 2026-04-29 01:31 | 40.96411 | 54.27903 | 30008 ft | 462 kts | 265° |
| 2026-04-29 01:32 | 40.96162 | 54.19365 | 30001 ft | 461 kts | 265° |
| 2026-04-29 01:32 | 40.95909 | 54.10903 | 29999 ft | 461 kts | 265° |
| 2026-04-29 01:33 | 40.95650 | 54.02444 | 30000 ft | 460 kts | 265° |
| 2026-04-29 01:33 | 40.95384 | 53.93953 | 29994 ft | 459 kts | 265° |
| 2026-04-29 01:34 | 40.95115 | 53.85566 | 29997 ft | 459 kts | 265° |
| 2026-04-29 01:34 | 40.94838 | 53.77101 | 29999 ft | 459 kts | 265° |
| 2026-04-29 01:35 | 40.94555 | 53.68685 | 29999 ft | 460 kts | 265° |
| 2026-04-29 01:35 | 40.94264 | 53.60203 | 29999 ft | 460 kts | 265° |
| 2026-04-29 01:36 | 40.93968 | 53.51740 | 30004 ft | 460 kts | 265° |
| 2026-04-29 01:36 | 40.93665 | 53.43274 | 30003 ft | 459 kts | 265° |
| 2026-04-29 01:37 | 40.93357 | 53.34827 | 30007 ft | 459 kts | 264° |
| 2026-04-29 01:37 | 40.93046 | 53.26456 | 30013 ft | 457 kts | 264° |
| 2026-04-29 01:38 | 40.92725 | 53.18018 | 30016 ft | 457 kts | 264° |
| 2026-04-29 01:38 | 40.92396 | 53.09536 | 30023 ft | 458 kts | 264° |
| 2026-04-29 01:39 | 40.92054 | 53.01105 | 30014 ft | 457 kts | 264° |
| 2026-04-29 01:39 | 40.91707 | 52.92688 | 30017 ft | 457 kts | 264° |
| 2026-04-29 01:40 | 40.91355 | 52.84295 | 30019 ft | 457 kts | 264° |
| 2026-04-29 01:40 | 40.90995 | 52.75866 | 30021 ft | 456 kts | 264° |
| 2026-04-29 01:41 | 40.90632 | 52.67512 | 30024 ft | 455 kts | 264° |
| 2026-04-29 01:41 | 40.90082 | 52.59220 | 30029 ft | 451 kts | 257° |
| 2026-04-29 01:42 | 40.88825 | 52.51041 | 30043 ft | 453 kts | 256° |
| 2026-04-29 01:42 | 40.87544 | 52.42889 | 30041 ft | 452 kts | 256° |
| 2026-04-29 01:43 | 40.86257 | 52.34742 | 30042 ft | 453 kts | 255° |
| 2026-04-29 01:43 | 40.84968 | 52.26617 | 30050 ft | 452 kts | 255° |
| 2026-04-29 01:44 | 40.83673 | 52.18487 | 30055 ft | 450 kts | 255° |
| 2026-04-29 01:44 | 40.82373 | 52.10368 | 30059 ft | 450 kts | 255° |
| 2026-04-29 01:45 | 40.81068 | 52.02249 | 30055 ft | 450 kts | 255° |
| 2026-04-29 01:45 | 40.79762 | 51.94165 | 30061 ft | 449 kts | 255° |
| 2026-04-29 01:46 | 40.78450 | 51.86089 | 30062 ft | 450 kts | 255° |
| 2026-04-29 01:46 | 40.77128 | 51.77980 | 30068 ft | 450 kts | 255° |
| 2026-04-29 01:47 | 40.75800 | 51.69877 | 30072 ft | 450 kts | 255° |
| 2026-04-29 01:47 | 40.74479 | 51.61855 | 30064 ft | 449 kts | 255° |
| 2026-04-29 01:48 | 40.73139 | 51.53754 | 30075 ft | 450 kts | 254° |
| 2026-04-29 01:48 | 40.72303 | 51.45569 | 30082 ft | 454 kts | 263° |
| 2026-04-29 01:49 | 40.71983 | 51.37223 | 30077 ft | 454 kts | 263° |
| 2026-04-29 01:49 | 40.71658 | 51.28919 | 30092 ft | 453 kts | 262° |
| 2026-04-29 01:50 | 40.71322 | 51.20593 | 30093 ft | 453 kts | 262° |
| 2026-04-29 01:50 | 40.70977 | 51.12261 | 30091 ft | 454 kts | 262° |
| 2026-04-29 01:51 | 40.70627 | 51.03966 | 30103 ft | 453 kts | 262° |
| 2026-04-29 01:51 | 40.70266 | 50.95597 | 30099 ft | 454 kts | 262° |
| 2026-04-29 01:52 | 40.69903 | 50.87287 | 30101 ft | 454 kts | 262° |
| 2026-04-29 01:52 | 40.69532 | 50.78954 | 30100 ft | 455 kts | 262° |
| 2026-04-29 01:53 | 40.69156 | 50.70632 | 30105 ft | 455 kts | 262° |
| 2026-04-29 01:53 | 40.68775 | 50.62342 | 30097 ft | 455 kts | 262° |
| 2026-04-29 01:54 | 40.68384 | 50.53979 | 30102 ft | 456 kts | 262° |
| 2026-04-29 01:54 | 40.68053 | 50.45638 | 30104 ft | 460 kts | 266° |
| 2026-04-29 01:55 | 40.69077 | 50.37247 | 30109 ft | 470 kts | 279° |
| 2026-04-29 01:55 | 40.70697 | 50.28910 | 30111 ft | 470 kts | 279° |
| 2026-04-29 01:56 | 40.72329 | 50.20473 | 30114 ft | 471 kts | 279° |
| 2026-04-29 01:56 | 40.73933 | 50.12115 | 30109 ft | 472 kts | 279° |
| 2026-04-29 01:57 | 40.75547 | 50.03657 | 30119 ft | 472 kts | 279° |
| 2026-04-29 01:57 | 40.77135 | 49.95291 | 30116 ft | 473 kts | 278° |
| 2026-04-29 01:58 | 40.78732 | 49.86841 | 30115 ft | 473 kts | 278° |
| 2026-04-29 01:58 | 40.80309 | 49.78460 | 30121 ft | 474 kts | 278° |
| 2026-04-29 01:59 | 40.81900 | 49.69958 | 30122 ft | 474 kts | 278° |
| 2026-04-29 01:59 | 40.82161 | 49.68565 | 30120 ft | 475 kts | 278° |
| 2026-04-29 02:00 | 40.85044 | 49.53054 | 30127 ft | 476 kts | 278° |
| 2026-04-29 02:00 | 40.86615 | 49.44553 | 30128 ft | 476 kts | 278° |
| 2026-04-29 02:01 | 40.88193 | 49.35977 | 30123 ft | 476 kts | 278° |
| 2026-04-29 02:01 | 40.89683 | 49.27481 | 30124 ft | 475 kts | 277° |
| 2026-04-29 02:02 | 40.91135 | 49.18882 | 30124 ft | 475 kts | 277° |
| 2026-04-29 02:02 | 40.92568 | 49.10383 | 30117 ft | 473 kts | 277° |
| 2026-04-29 02:03 | 40.93954 | 49.02132 | 30111 ft | 474 kts | 277° |
| 2026-04-29 02:03 | 40.95354 | 48.93760 | 30104 ft | 475 kts | 277° |
| 2026-04-29 02:04 | 40.96785 | 48.85174 | 30110 ft | 475 kts | 277° |
| 2026-04-29 02:04 | 40.98043 | 48.77586 | 30125 ft | 477 kts | 277° |
| 2026-04-29 02:05 | 40.99461 | 48.69006 | 30115 ft | 476 kts | 277° |
| 2026-04-29 02:05 | 41.00867 | 48.60447 | 30108 ft | 475 kts | 277° |
| 2026-04-29 02:06 | 41.02261 | 48.51923 | 30109 ft | 475 kts | 278° |
| 2026-04-29 02:06 | 41.03650 | 48.43391 | 30102 ft | 474 kts | 278° |
| 2026-04-29 02:07 | 41.05038 | 48.34819 | 30100 ft | 475 kts | 277° |
| 2026-04-29 02:07 | 41.06421 | 48.26232 | 30101 ft | 477 kts | 277° |
| 2026-04-29 02:08 | 41.07796 | 48.17651 | 30099 ft | 476 kts | 278° |
| 2026-04-29 02:08 | 41.09169 | 48.09045 | 30102 ft | 476 kts | 278° |
| 2026-04-29 02:09 | 41.10529 | 48.00478 | 30093 ft | 475 kts | 278° |
| 2026-04-29 02:09 | 41.11886 | 47.91888 | 30091 ft | 474 kts | 278° |
| 2026-04-29 02:10 | 41.13232 | 47.83320 | 30080 ft | 474 kts | 278° |
| 2026-04-29 02:10 | 41.14568 | 47.74778 | 30086 ft | 474 kts | 278° |
| 2026-04-29 02:11 | 41.15900 | 47.66219 | 30087 ft | 475 kts | 279° |
| 2026-04-29 02:11 | 41.17235 | 47.57594 | 30091 ft | 476 kts | 279° |
| 2026-04-29 02:12 | 41.18554 | 47.49029 | 30097 ft | 474 kts | 279° |
| 2026-04-29 02:12 | 41.19866 | 47.40462 | 30093 ft | 473 kts | 279° |
| 2026-04-29 02:13 | 41.21172 | 47.31895 | 30091 ft | 473 kts | 278° |
| 2026-04-29 02:13 | 41.22474 | 47.23298 | 30105 ft | 473 kts | 279° |
| 2026-04-29 02:14 | 41.23765 | 47.14736 | 30104 ft | 473 kts | 279° |
| 2026-04-29 02:14 | 41.25023 | 47.06347 | 30111 ft | 473 kts | 279° |
| 2026-04-29 02:15 | 41.26308 | 46.97733 | 30105 ft | 474 kts | 279° |
| 2026-04-29 02:15 | 41.27577 | 46.89182 | 30109 ft | 472 kts | 279° |
| 2026-04-29 02:16 | 41.28842 | 46.80611 | 30123 ft | 472 kts | 279° |
| 2026-04-29 02:16 | 41.30105 | 46.71956 | 30110 ft | 471 kts | 279° |
| 2026-04-29 02:17 | 41.31306 | 46.63394 | 30118 ft | 473 kts | 278° |
| 2026-04-29 02:17 | 41.31913 | 46.59044 | 30164 ft | 485 kts | 279° |
| 2026-04-29 02:17 | 41.32531 | 46.54605 | 30549 ft | 490 kts | 279° |
| 2026-04-29 02:18 | 41.33148 | 46.50174 | 31342 ft | 485 kts | 278° |
| 2026-04-29 02:18 | 41.33757 | 46.45793 | 32279 ft | 476 kts | 278° |
| 2026-04-29 02:18 | 41.34353 | 46.41487 | 33005 ft | 472 kts | 278° |
| 2026-04-29 02:18 | 41.34952 | 46.37148 | 33587 ft | 470 kts | 277° |
| 2026-04-29 02:19 | 41.35543 | 46.32852 | 34044 ft | 470 kts | 277° |
| 2026-04-29 02:19 | 41.36131 | 46.28558 | 34106 ft | 472 kts | 277° |
| 2026-04-29 02:19 | 41.37314 | 46.19899 | 34125 ft | 468 kts | 277° |
| 2026-04-29 02:20 | 41.38474 | 46.11357 | 34117 ft | 469 kts | 277° |
| 2026-04-29 02:20 | 41.39629 | 46.02801 | 34107 ft | 468 kts | 277° |
| 2026-04-29 02:21 | 41.40776 | 45.94259 | 34100 ft | 467 kts | 277° |
| 2026-04-29 02:21 | 41.41915 | 45.85725 | 34103 ft | 468 kts | 277° |
| 2026-04-29 02:22 | 41.43048 | 45.77186 | 34103 ft | 468 kts | 277° |
| 2026-04-29 02:22 | 41.44176 | 45.68633 | 34103 ft | 469 kts | 277° |
| 2026-04-29 02:23 | 41.45298 | 45.60077 | 34102 ft | 467 kts | 277° |
| 2026-04-29 02:23 | 41.46418 | 45.51482 | 34104 ft | 468 kts | 277° |
| 2026-04-29 02:24 | 41.47522 | 45.42960 | 34102 ft | 467 kts | 277° |
| 2026-04-29 02:25 | 41.48968 | 45.29987 | 34108 ft | 465 kts | 272° |
| 2026-04-29 02:25 | 41.49642 | 45.21318 | 34106 ft | 466 kts | 273° |
| 2026-04-29 02:26 | 41.50266 | 45.13409 | 34105 ft | 466 kts | 273° |
| 2026-04-29 02:26 | 41.50953 | 45.04746 | 34104 ft | 465 kts | 273° |
| 2026-04-29 02:27 | 41.51647 | 44.95977 | 34097 ft | 464 kts | 273° |
| 2026-04-29 02:27 | 41.52338 | 44.87197 | 34095 ft | 464 kts | 273° |
| 2026-04-29 02:28 | 41.52997 | 44.78762 | 34093 ft | 463 kts | 273° |
| 2026-04-29 02:28 | 41.53660 | 44.70201 | 34097 ft | 464 kts | 273° |
| 2026-04-29 02:29 | 41.54317 | 44.61641 | 34103 ft | 465 kts | 273° |
| 2026-04-29 02:29 | 41.54967 | 44.53102 | 34096 ft | 462 kts | 273° |
| 2026-04-29 02:30 | 41.55619 | 44.44430 | 34091 ft | 463 kts | 273° |
| 2026-04-29 02:30 | 41.56267 | 44.35746 | 34084 ft | 462 kts | 274° |
| 2026-04-29 02:31 | 41.56899 | 44.27178 | 34096 ft | 462 kts | 273° |
| 2026-04-29 02:31 | 41.57538 | 44.18669 | 34089 ft | 462 kts | 273° |
| 2026-04-29 02:32 | 41.58216 | 44.10065 | 34081 ft | 462 kts | 274° |
| 2026-04-29 02:32 | 41.58889 | 44.01424 | 34076 ft | 463 kts | 274° |
| 2026-04-29 02:33 | 41.59549 | 43.92860 | 34081 ft | 461 kts | 273° |
| 2026-04-29 02:33 | 41.60196 | 43.84372 | 34083 ft | 461 kts | 274° |
| 2026-04-29 02:34 | 41.60836 | 43.75882 | 34087 ft | 461 kts | 273° |
| 2026-04-29 02:34 | 41.61474 | 43.67341 | 34083 ft | 460 kts | 273° |
| 2026-04-29 02:35 | 41.62100 | 43.58852 | 34082 ft | 460 kts | 273° |
| 2026-04-29 02:35 | 41.62725 | 43.50300 | 34081 ft | 461 kts | 273° |
| 2026-04-29 02:36 | 41.63351 | 43.41696 | 34087 ft | 461 kts | 274° |
| 2026-04-29 02:36 | 41.63969 | 43.33123 | 34094 ft | 461 kts | 273° |
| 2026-04-29 02:37 | 41.64580 | 43.24556 | 34090 ft | 459 kts | 272° |
| 2026-04-29 02:37 | 41.65190 | 43.15905 | 34092 ft | 459 kts | 273° |
| 2026-04-29 02:38 | 41.65787 | 43.07349 | 34077 ft | 458 kts | 273° |
| 2026-04-29 02:38 | 41.66375 | 42.98826 | 34085 ft | 459 kts | 272° |
| 2026-04-29 02:39 | 41.66953 | 42.90357 | 34089 ft | 459 kts | 273° |
| 2026-04-29 02:39 | 41.66904 | 42.81866 | 34096 ft | 455 kts | 262° |
| 2026-04-29 02:40 | 41.66223 | 42.73462 | 34096 ft | 455 kts | 262° |
| 2026-04-29 02:40 | 41.65523 | 42.65012 | 34092 ft | 456 kts | 262° |
| 2026-04-29 02:41 | 41.64821 | 42.56607 | 34091 ft | 456 kts | 262° |
| 2026-04-29 02:41 | 41.64107 | 42.48140 | 34098 ft | 456 kts | 262° |
| 2026-04-29 02:42 | 41.63389 | 42.39714 | 34095 ft | 456 kts | 262° |
| 2026-04-29 02:42 | 41.62669 | 42.31322 | 34103 ft | 455 kts | 262° |
| 2026-04-29 02:43 | 41.61934 | 42.22840 | 34092 ft | 455 kts | 262° |
| 2026-04-29 02:43 | 41.61205 | 42.14491 | 34097 ft | 455 kts | 262° |
| 2026-04-29 02:44 | 41.60464 | 42.06089 | 34087 ft | 453 kts | 262° |
| 2026-04-29 02:44 | 41.59720 | 41.97712 | 34089 ft | 453 kts | 262° |
| 2026-04-29 02:45 | 41.58967 | 41.89318 | 34084 ft | 455 kts | 262° |
| 2026-04-29 02:45 | 41.58206 | 41.80898 | 34099 ft | 456 kts | 262° |
| 2026-04-29 02:46 | 41.57445 | 41.72541 | 34108 ft | 455 kts | 262° |
| 2026-04-29 02:46 | 41.56672 | 41.64129 | 34105 ft | 455 kts | 262° |
| 2026-04-29 02:47 | 41.55897 | 41.55765 | 34121 ft | 454 kts | 262° |
| 2026-04-29 02:47 | 41.55119 | 41.47417 | 34118 ft | 454 kts | 262° |
| 2026-04-29 02:48 | 41.55207 | 41.38954 | 34115 ft | 457 kts | 272° |
| 2026-04-29 02:48 | 41.55704 | 41.30616 | 34125 ft | 457 kts | 272° |
| 2026-04-29 02:49 | 41.56197 | 41.22141 | 34124 ft | 457 kts | 272° |
| 2026-04-29 02:49 | 41.56682 | 41.13620 | 34115 ft | 458 kts | 272° |
| 2026-04-29 02:50 | 41.57156 | 41.05151 | 34118 ft | 457 kts | 272° |
| 2026-04-29 02:50 | 41.57621 | 40.96710 | 34110 ft | 456 kts | 272° |
| 2026-04-29 02:51 | 41.58078 | 40.88273 | 34126 ft | 457 kts | 272° |
| 2026-04-29 02:51 | 41.58531 | 40.79806 | 34116 ft | 455 kts | 272° |
| 2026-04-29 02:52 | 41.58978 | 40.71336 | 34118 ft | 456 kts | 272° |
| 2026-04-29 02:52 | 41.59420 | 40.62823 | 34116 ft | 457 kts | 272° |
| 2026-04-29 02:53 | 41.59855 | 40.54335 | 34109 ft | 457 kts | 272° |
| 2026-04-29 02:53 | 41.60282 | 40.45870 | 34124 ft | 456 kts | 272° |
| 2026-04-29 02:54 | 41.60706 | 40.37336 | 34119 ft | 457 kts | 272° |
| 2026-04-29 02:54 | 41.61119 | 40.28907 | 34122 ft | 456 kts | 271° |
| 2026-04-29 02:55 | 41.61531 | 40.20349 | 34130 ft | 456 kts | 271° |
| 2026-04-29 02:55 | 41.61933 | 40.11906 | 34122 ft | 457 kts | 271° |
| 2026-04-29 02:56 | 41.62330 | 40.03408 | 34133 ft | 457 kts | 271° |
| 2026-04-29 02:56 | 41.62655 | 39.96366 | 34126 ft | 457 kts | 271° |
| 2026-04-29 02:57 | 41.63447 | 39.78756 | 34127 ft | 457 kts | 271° |
| 2026-04-29 02:58 | 41.63821 | 39.70228 | 34124 ft | 457 kts | 271° |
| 2026-04-29 02:58 | 41.64186 | 39.61757 | 34120 ft | 457 kts | 271° |
| 2026-04-29 02:59 | 41.64546 | 39.53248 | 34122 ft | 457 kts | 272° |
| 2026-04-29 02:59 | 41.64900 | 39.44729 | 34122 ft | 458 kts | 272° |
| 2026-04-29 03:00 | 41.65304 | 39.34811 | 34125 ft | 458 kts | 271° |
| 2026-04-29 03:00 | 41.65589 | 39.27689 | 34126 ft | 457 kts | 271° |
| 2026-04-29 03:01 | 41.65923 | 39.19185 | 34125 ft | 457 kts | 271° |
| 2026-04-29 03:01 | 41.66303 | 39.09318 | 34130 ft | 457 kts | 271° |
| 2026-04-29 03:02 | 41.66575 | 39.02113 | 34122 ft | 457 kts | 271° |
| 2026-04-29 03:02 | 41.66948 | 38.92048 | 34130 ft | 458 kts | 271° |
| 2026-04-29 03:03 | 41.67256 | 38.83512 | 34137 ft | 458 kts | 271° |
| 2026-04-29 03:03 | 41.67512 | 38.76324 | 34142 ft | 456 kts | 271° |
| 2026-04-29 03:04 | 41.67813 | 38.67678 | 34143 ft | 457 kts | 271° |
| 2026-04-29 03:04 | 41.68153 | 38.57692 | 34141 ft | 457 kts | 271° |
| 2026-04-29 03:05 | 41.68438 | 38.49082 | 34141 ft | 456 kts | 271° |
| 2026-04-29 03:05 | 41.68718 | 38.40460 | 34142 ft | 457 kts | 271° |
| 2026-04-29 03:06 | 41.68944 | 38.33366 | 34136 ft | 457 kts | 271° |
| 2026-04-29 03:06 | 41.69253 | 38.23394 | 34133 ft | 456 kts | 271° |
| 2026-04-29 03:07 | 41.69472 | 38.16170 | 34142 ft | 457 kts | 271° |
| 2026-04-29 03:07 | 41.69725 | 38.07603 | 34141 ft | 457 kts | 271° |
| 2026-04-29 03:08 | 41.70011 | 37.97672 | 34135 ft | 456 kts | 271° |
| 2026-04-29 03:08 | 41.70251 | 37.89124 | 34141 ft | 457 kts | 271° |
| 2026-04-29 03:09 | 41.70443 | 37.82069 | 34138 ft | 455 kts | 271° |
| 2026-04-29 03:09 | 41.70670 | 37.73548 | 34129 ft | 457 kts | 271° |
| 2026-04-29 03:10 | 41.70892 | 37.64986 | 34141 ft | 456 kts | 271° |
| 2026-04-29 03:10 | 41.71105 | 37.56467 | 34140 ft | 457 kts | 271° |
| 2026-04-29 03:11 | 41.71312 | 37.47971 | 34139 ft | 455 kts | 271° |
| 2026-04-29 03:11 | 41.71512 | 37.39486 | 34141 ft | 456 kts | 272° |
| 2026-04-29 03:12 | 41.71706 | 37.30979 | 34138 ft | 454 kts | 271° |
| 2026-04-29 03:12 | 41.71892 | 37.22583 | 34136 ft | 454 kts | 271° |
| 2026-04-29 03:13 | 41.72073 | 37.14143 | 34142 ft | 453 kts | 271° |
| 2026-04-29 03:13 | 41.72248 | 37.05660 | 34140 ft | 453 kts | 271° |
| 2026-04-29 03:14 | 41.72415 | 36.97253 | 34135 ft | 453 kts | 271° |
| 2026-04-29 03:14 | 41.72577 | 36.88805 | 34138 ft | 454 kts | 271° |
| 2026-04-29 03:15 | 41.72734 | 36.80299 | 34140 ft | 453 kts | 271° |
| 2026-04-29 03:15 | 41.72885 | 36.71794 | 34136 ft | 452 kts | 271° |
| 2026-04-29 03:16 | 41.73028 | 36.63354 | 34134 ft | 451 kts | 271° |
| 2026-04-29 03:16 | 41.73185 | 36.53679 | 34130 ft | 449 kts | 271° |
| 2026-04-29 03:17 | 41.73314 | 36.45251 | 34137 ft | 450 kts | 271° |
| 2026-04-29 03:17 | 41.73418 | 36.38170 | 34133 ft | 450 kts | 271° |
| 2026-04-29 03:18 | 41.73536 | 36.29798 | 34142 ft | 450 kts | 271° |
| 2026-04-29 03:18 | 41.73649 | 36.21316 | 34140 ft | 449 kts | 271° |
| 2026-04-29 03:19 | 41.73756 | 36.12832 | 34144 ft | 449 kts | 271° |
| 2026-04-29 03:19 | 41.73856 | 36.04444 | 34138 ft | 448 kts | 271° |
| 2026-04-29 03:20 | 41.73949 | 35.96023 | 34142 ft | 447 kts | 271° |
| 2026-04-29 03:20 | 41.74051 | 35.86221 | 34143 ft | 446 kts | 271° |
| 2026-04-29 03:21 | 41.74117 | 35.79330 | 34136 ft | 444 kts | 271° |
| 2026-04-29 03:21 | 41.74204 | 35.69568 | 34134 ft | 445 kts | 271° |
| 2026-04-29 03:22 | 41.74272 | 35.61151 | 34135 ft | 444 kts | 271° |
| 2026-04-29 03:22 | 41.74334 | 35.52688 | 34129 ft | 444 kts | 271° |
| 2026-04-29 03:23 | 41.74390 | 35.44283 | 34126 ft | 444 kts | 271° |
| 2026-04-29 03:23 | 41.74432 | 35.37262 | 34126 ft | 443 kts | 272° |
| 2026-04-29 03:24 | 41.74483 | 35.27561 | 34124 ft | 442 kts | 271° |
| 2026-04-29 03:24 | 41.74520 | 35.19166 | 34127 ft | 442 kts | 271° |
| 2026-04-29 03:25 | 41.74547 | 35.12236 | 34114 ft | 442 kts | 271° |
| 2026-04-29 03:25 | 41.74575 | 35.03098 | 34089 ft | 442 kts | 271° |
| 2026-04-29 03:26 | 41.74595 | 34.94780 | 34072 ft | 441 kts | 272° |
| 2026-04-29 03:26 | 41.74605 | 34.89120 | 34069 ft | 441 kts | 272° |
| 2026-04-29 03:27 | 41.74614 | 34.81341 | 34073 ft | 441 kts | 272° |
| 2026-04-29 03:27 | 41.74617 | 34.73127 | 34063 ft | 441 kts | 272° |
| 2026-04-29 03:28 | 41.74616 | 34.64814 | 34059 ft | 440 kts | 272° |
| 2026-04-29 03:28 | 41.75278 | 34.56369 | 34064 ft | 437 kts | 286° |
| 2026-04-29 03:29 | 41.76598 | 34.50721 | 34059 ft | 436 kts | 288° |
| 2026-04-29 03:29 | 41.78207 | 34.43988 | 34055 ft | 436 kts | 288° |
| 2026-04-29 03:30 | 41.80042 | 34.36224 | 34057 ft | 434 kts | 288° |
| 2026-04-29 03:30 | 41.82172 | 34.27119 | 34071 ft | 436 kts | 288° |
| 2026-04-29 03:31 | 41.84880 | 34.15462 | 34076 ft | 432 kts | 288° |
| 2026-04-29 03:31 | 41.86357 | 34.09068 | 34077 ft | 433 kts | 287° |
| 2026-04-29 03:32 | 41.88430 | 34.00058 | 34084 ft | 431 kts | 288° |
| 2026-04-29 03:32 | 41.89899 | 33.93652 | 34088 ft | 433 kts | 287° |
| 2026-04-29 03:33 | 41.91678 | 33.85868 | 34095 ft | 432 kts | 287° |
| 2026-04-29 03:33 | 41.93436 | 33.78146 | 34103 ft | 432 kts | 287° |
| 2026-04-29 03:34 | 41.94811 | 33.70277 | 34099 ft | 432 kts | 276° |
| 2026-04-29 03:34 | 41.94622 | 33.62204 | 34097 ft | 434 kts | 269° |
| 2026-04-29 03:35 | 41.94159 | 33.54100 | 34093 ft | 433 kts | 268° |
| 2026-04-29 03:35 | 41.93687 | 33.46081 | 34087 ft | 433 kts | 269° |
| 2026-04-29 03:36 | 41.93202 | 33.38003 | 34085 ft | 432 kts | 268° |
| 2026-04-29 03:36 | 41.92713 | 33.29966 | 34095 ft | 434 kts | 268° |
| 2026-04-29 03:37 | 41.92216 | 33.21925 | 34094 ft | 431 kts | 268° |
| 2026-04-29 03:37 | 41.91628 | 33.12526 | 34091 ft | 432 kts | 268° |
| 2026-04-29 03:38 | 41.91204 | 33.05812 | 34092 ft | 433 kts | 268° |
| 2026-04-29 03:38 | 41.90691 | 32.97802 | 34093 ft | 432 kts | 268° |
| 2026-04-29 03:39 | 41.90173 | 32.89790 | 34090 ft | 432 kts | 268° |
| 2026-04-29 03:39 | 41.89651 | 32.81802 | 34084 ft | 430 kts | 268° |
| 2026-04-29 03:40 | 41.89119 | 32.73749 | 34080 ft | 431 kts | 268° |
| 2026-04-29 03:40 | 41.88585 | 32.65744 | 34088 ft | 431 kts | 268° |
| 2026-04-29 03:41 | 41.88046 | 32.57762 | 34090 ft | 430 kts | 268° |
| 2026-04-29 03:41 | 41.87521 | 32.49727 | 34094 ft | 429 kts | 271° |
| 2026-04-29 03:42 | 41.87793 | 32.44435 | 34105 ft | 425 kts | 282° |
| 2026-04-29 03:42 | 41.88242 | 32.41906 | 34104 ft | 423 kts | 287° |
| 2026-04-29 03:42 | 41.90025 | 32.34380 | 34115 ft | 424 kts | 288° |
| 2026-04-29 03:43 | 41.91855 | 32.26831 | 34131 ft | 424 kts | 288° |
| 2026-04-29 03:43 | 41.93671 | 32.19270 | 34129 ft | 423 kts | 288° |
| 2026-04-29 03:44 | 41.95453 | 32.11766 | 34133 ft | 422 kts | 288° |
| 2026-04-29 03:44 | 41.97238 | 32.04218 | 34131 ft | 422 kts | 288° |
| 2026-04-29 03:45 | 41.99016 | 31.96675 | 34132 ft | 422 kts | 288° |
| 2026-04-29 03:45 | 42.01066 | 31.87943 | 34138 ft | 422 kts | 288° |
| 2026-04-29 03:46 | 42.02539 | 31.81666 | 34134 ft | 421 kts | 288° |
| 2026-04-29 03:46 | 42.04059 | 31.75169 | 34137 ft | 422 kts | 288° |
| 2026-04-29 03:47 | 42.05811 | 31.67653 | 34151 ft | 422 kts | 288° |
| 2026-04-29 03:47 | 42.07560 | 31.60130 | 34149 ft | 421 kts | 288° |
| 2026-04-29 03:48 | 42.09308 | 31.52581 | 34149 ft | 421 kts | 288° |
| 2026-04-29 03:48 | 42.11034 | 31.45104 | 34154 ft | 421 kts | 288° |
| 2026-04-29 03:49 | 42.12767 | 31.37570 | 34154 ft | 421 kts | 288° |
| 2026-04-29 03:49 | 42.14500 | 31.30008 | 34165 ft | 419 kts | 287° |
| 2026-04-29 03:50 | 42.16213 | 31.22510 | 34165 ft | 419 kts | 287° |
| 2026-04-29 03:50 | 42.17921 | 31.15009 | 34162 ft | 417 kts | 287° |
| 2026-04-29 03:51 | 42.19899 | 31.06287 | 34160 ft | 418 kts | 287° |
| 2026-04-29 03:51 | 42.21317 | 31.00015 | 34159 ft | 417 kts | 287° |
| 2026-04-29 03:52 | 42.23007 | 30.92515 | 34158 ft | 417 kts | 287° |
| 2026-04-29 03:52 | 42.24686 | 30.85036 | 34157 ft | 419 kts | 287° |
| 2026-04-29 03:53 | 42.26370 | 30.77512 | 34155 ft | 419 kts | 287° |
| 2026-04-29 03:53 | 42.27214 | 30.73734 | 34157 ft | 419 kts | 287° |
| 2026-04-29 03:54 | 42.29808 | 30.62071 | 34152 ft | 419 kts | 287° |
| 2026-04-29 03:54 | 42.31484 | 30.54500 | 34152 ft | 419 kts | 287° |
| 2026-04-29 03:55 | 42.33148 | 30.46961 | 34153 ft | 419 kts | 287° |
| 2026-04-29 03:55 | 42.34806 | 30.39420 | 34152 ft | 419 kts | 287° |
| 2026-04-29 03:56 | 42.36469 | 30.31831 | 34163 ft | 419 kts | 287° |
| 2026-04-29 03:56 | 42.38125 | 30.24247 | 34162 ft | 419 kts | 286° |
| 2026-04-29 03:57 | 42.39766 | 30.16706 | 34161 ft | 419 kts | 287° |
| 2026-04-29 03:57 | 42.41410 | 30.09120 | 34159 ft | 419 kts | 287° |
| 2026-04-29 03:58 | 42.43041 | 30.01573 | 34158 ft | 420 kts | 287° |
| 2026-04-29 03:58 | 42.44678 | 29.93968 | 34158 ft | 419 kts | 287° |
| 2026-04-29 03:59 | 42.46646 | 29.86506 | 34155 ft | 420 kts | 297° |
| 2026-04-29 03:59 | 42.49921 | 29.80001 | 34155 ft | 422 kts | 304° |
| 2026-04-29 04:00 | 42.53421 | 29.73551 | 34156 ft | 421 kts | 304° |
| 2026-04-29 04:00 | 42.56863 | 29.67176 | 34155 ft | 421 kts | 304° |
| 2026-04-29 04:01 | 42.60304 | 29.60778 | 34153 ft | 420 kts | 304° |
| 2026-04-29 04:01 | 42.63749 | 29.54355 | 34151 ft | 419 kts | 304° |
| 2026-04-29 04:02 | 42.67165 | 29.47969 | 34149 ft | 420 kts | 304° |
| 2026-04-29 04:02 | 42.70602 | 29.41529 | 34150 ft | 420 kts | 304° |
| 2026-04-29 04:03 | 42.74042 | 29.35068 | 34148 ft | 420 kts | 304° |
| 2026-04-29 04:03 | 42.77342 | 29.28857 | 34163 ft | 418 kts | 303° |
| 2026-04-29 04:04 | 42.80623 | 29.22668 | 34156 ft | 418 kts | 303° |
| 2026-04-29 04:04 | 42.83910 | 29.16456 | 34160 ft | 418 kts | 303° |
| 2026-04-29 04:05 | 42.87313 | 29.10010 | 34160 ft | 419 kts | 303° |
| 2026-04-29 04:05 | 42.90707 | 29.03568 | 34160 ft | 418 kts | 303° |
| 2026-04-29 04:06 | 42.94074 | 28.97163 | 34154 ft | 417 kts | 303° |
| 2026-04-29 04:06 | 42.97456 | 28.90717 | 34153 ft | 417 kts | 303° |
| 2026-04-29 04:07 | 43.00811 | 28.84306 | 34153 ft | 416 kts | 303° |
| 2026-04-29 04:07 | 43.04187 | 28.77842 | 34151 ft | 417 kts | 303° |
| 2026-04-29 04:08 | 43.07556 | 28.71378 | 34150 ft | 417 kts | 303° |
| 2026-04-29 04:08 | 43.10927 | 28.64895 | 34153 ft | 416 kts | 303° |
| 2026-04-29 04:09 | 43.14309 | 28.58376 | 34154 ft | 416 kts | 303° |
| 2026-04-29 04:09 | 43.17660 | 28.51904 | 34154 ft | 417 kts | 303° |
| 2026-04-29 04:10 | 43.20768 | 28.45890 | 34152 ft | 416 kts | 303° |
| 2026-04-29 04:10 | 43.24107 | 28.39412 | 34151 ft | 416 kts | 303° |
| 2026-04-29 04:11 | 43.27456 | 28.32902 | 34162 ft | 415 kts | 303° |
| 2026-04-29 04:11 | 43.30762 | 28.26461 | 34161 ft | 415 kts | 303° |
| 2026-04-29 04:12 | 43.34072 | 28.19997 | 34157 ft | 414 kts | 303° |
| 2026-04-29 04:12 | 43.37414 | 28.13459 | 34152 ft | 415 kts | 303° |
| 2026-04-29 04:13 | 43.40726 | 28.06963 | 34148 ft | 416 kts | 303° |
| 2026-04-29 04:13 | 43.44035 | 28.00459 | 34146 ft | 415 kts | 303° |
| 2026-04-29 04:14 | 43.47345 | 27.93940 | 34140 ft | 416 kts | 303° |
| 2026-04-29 04:14 | 43.50653 | 27.87410 | 34136 ft | 415 kts | 303° |
| 2026-04-29 04:15 | 43.53942 | 27.80902 | 34137 ft | 415 kts | 303° |
| 2026-04-29 04:15 | 43.57250 | 27.74342 | 34134 ft | 415 kts | 303° |
| 2026-04-29 04:16 | 43.60558 | 27.67769 | 34132 ft | 416 kts | 303° |
| 2026-04-29 04:16 | 43.63844 | 27.61223 | 34130 ft | 416 kts | 303° |
| 2026-04-29 04:17 | 43.67141 | 27.54642 | 34128 ft | 416 kts | 303° |
| 2026-04-29 04:17 | 43.70416 | 27.48090 | 34129 ft | 416 kts | 303° |
| 2026-04-29 04:18 | 43.73692 | 27.41520 | 34125 ft | 417 kts | 303° |
| 2026-04-29 04:18 | 43.76937 | 27.34998 | 34122 ft | 415 kts | 303° |
| 2026-04-29 04:19 | 43.80044 | 27.28740 | 34134 ft | 416 kts | 303° |
| 2026-04-29 04:19 | 43.83316 | 27.22137 | 34131 ft | 416 kts | 302° |
| 2026-04-29 04:20 | 43.86602 | 27.15488 | 34131 ft | 416 kts | 302° |
| 2026-04-29 04:20 | 43.89842 | 27.08918 | 34132 ft | 415 kts | 302° |
| 2026-04-29 04:21 | 43.93093 | 27.02311 | 34126 ft | 415 kts | 303° |
| 2026-04-29 04:21 | 43.96360 | 26.95656 | 34107 ft | 414 kts | 302° |
| 2026-04-29 04:22 | 43.99585 | 26.89074 | 34109 ft | 413 kts | 302° |
| 2026-04-29 04:22 | 44.02817 | 26.82461 | 34111 ft | 413 kts | 302° |
| 2026-04-29 04:23 | 44.06030 | 26.75871 | 34118 ft | 414 kts | 302° |
| 2026-04-29 04:23 | 44.09265 | 26.69221 | 34105 ft | 413 kts | 302° |
| 2026-04-29 04:24 | 44.12490 | 26.62576 | 34110 ft | 413 kts | 302° |
| 2026-04-29 04:24 | 44.15620 | 26.56114 | 34114 ft | 413 kts | 302° |
| 2026-04-29 04:25 | 44.18834 | 26.49463 | 34115 ft | 412 kts | 302° |
| 2026-04-29 04:25 | 44.22057 | 26.42778 | 34119 ft | 414 kts | 302° |
| 2026-04-29 04:26 | 44.25260 | 26.36119 | 34118 ft | 413 kts | 302° |
| 2026-04-29 04:26 | 44.28452 | 26.29467 | 34132 ft | 411 kts | 302° |
| 2026-04-29 04:27 | 44.31634 | 26.22821 | 34129 ft | 412 kts | 302° |
| 2026-04-29 04:27 | 44.34775 | 26.16247 | 34134 ft | 410 kts | 301° |
| 2026-04-29 04:28 | 44.37941 | 26.09604 | 34128 ft | 412 kts | 301° |
| 2026-04-29 04:28 | 44.40971 | 26.03230 | 34130 ft | 412 kts | 302° |
| 2026-04-29 04:29 | 44.44138 | 25.96555 | 34127 ft | 412 kts | 301° |
| 2026-04-29 04:29 | 44.47282 | 25.89915 | 34133 ft | 410 kts | 302° |
| 2026-04-29 04:30 | 44.50446 | 25.83216 | 34113 ft | 412 kts | 302° |
| 2026-04-29 04:31 | 44.55176 | 25.73171 | 34125 ft | 411 kts | 301° |
| 2026-04-29 04:31 | 44.58331 | 25.66452 | 34118 ft | 412 kts | 301° |
| 2026-04-29 04:32 | 44.61474 | 25.59742 | 34119 ft | 412 kts | 302° |
| 2026-04-29 04:32 | 44.64606 | 25.53042 | 34110 ft | 410 kts | 301° |
| 2026-04-29 04:33 | 44.67741 | 25.46316 | 34114 ft | 411 kts | 301° |
| 2026-04-29 04:33 | 44.70867 | 25.39597 | 34108 ft | 411 kts | 301° |
| 2026-04-29 04:34 | 44.73989 | 25.32871 | 34126 ft | 412 kts | 301° |
| 2026-04-29 04:34 | 44.77119 | 25.26111 | 34123 ft | 409 kts | 301° |
| 2026-04-29 04:35 | 44.80228 | 25.19379 | 34120 ft | 409 kts | 301° |
| 2026-04-29 04:35 | 44.83321 | 25.12666 | 34123 ft | 410 kts | 301° |
| 2026-04-29 04:36 | 44.86425 | 25.05917 | 34125 ft | 410 kts | 301° |
| 2026-04-29 04:36 | 44.89529 | 24.99149 | 34107 ft | 410 kts | 301° |
| 2026-04-29 04:37 | 44.92629 | 24.92372 | 34115 ft | 410 kts | 301° |
| 2026-04-29 04:37 | 44.95715 | 24.85612 | 34107 ft | 409 kts | 301° |
| 2026-04-29 04:38 | 44.98786 | 24.78870 | 34102 ft | 408 kts | 301° |
| 2026-04-29 04:38 | 45.01870 | 24.72082 | 34097 ft | 410 kts | 301° |
| 2026-04-29 04:39 | 45.04937 | 24.65315 | 34094 ft | 409 kts | 301° |
| 2026-04-29 04:39 | 45.08001 | 24.58539 | 34083 ft | 410 kts | 301° |
| 2026-04-29 04:40 | 45.11076 | 24.51722 | 34084 ft | 408 kts | 301° |
| 2026-04-29 04:40 | 45.14126 | 24.44946 | 34082 ft | 409 kts | 301° |
| 2026-04-29 04:41 | 45.17155 | 24.38198 | 34088 ft | 408 kts | 301° |
| 2026-04-29 04:41 | 45.20195 | 24.31412 | 34088 ft | 407 kts | 300° |
| 2026-04-29 04:42 | 45.23230 | 24.24618 | 34083 ft | 405 kts | 300° |
| 2026-04-29 04:42 | 45.26261 | 24.17819 | 34079 ft | 408 kts | 300° |
| 2026-04-29 04:43 | 45.29270 | 24.11051 | 34081 ft | 408 kts | 301° |
| 2026-04-29 04:43 | 45.32289 | 24.04247 | 34055 ft | 407 kts | 300° |
| 2026-04-29 04:44 | 45.35312 | 23.97416 | 34063 ft | 408 kts | 300° |
| 2026-04-29 04:44 | 45.38318 | 23.90608 | 34072 ft | 407 kts | 301° |
| 2026-04-29 04:45 | 45.41304 | 23.83828 | 34065 ft | 407 kts | 300° |
| 2026-04-29 04:45 | 45.44310 | 23.76984 | 34059 ft | 408 kts | 300° |
| 2026-04-29 04:46 | 45.47316 | 23.70126 | 34057 ft | 406 kts | 301° |
| 2026-04-29 04:46 | 45.50301 | 23.63301 | 34065 ft | 407 kts | 300° |
| 2026-04-29 04:47 | 45.53273 | 23.56487 | 34062 ft | 405 kts | 300° |
| 2026-04-29 04:47 | 45.56267 | 23.49604 | 34081 ft | 407 kts | 301° |
| 2026-04-29 04:48 | 45.59251 | 23.42731 | 34066 ft | 407 kts | 301° |
| 2026-04-29 04:48 | 45.62223 | 23.35868 | 34070 ft | 405 kts | 301° |
| 2026-04-29 04:49 | 45.65191 | 23.28995 | 34097 ft | 406 kts | 300° |
| 2026-04-29 04:49 | 45.68113 | 23.22215 | 34102 ft | 405 kts | 300° |
| 2026-04-29 04:50 | 45.71044 | 23.15396 | 34094 ft | 404 kts | 300° |
| 2026-04-29 04:50 | 45.73978 | 23.08554 | 34124 ft | 406 kts | 300° |
| 2026-04-29 04:51 | 45.79839 | 22.94834 | 34135 ft | 403 kts | 300° |
| 2026-04-29 04:52 | 45.82756 | 22.87981 | 34102 ft | 403 kts | 300° |
| 2026-04-29 04:52 | 45.85681 | 22.81094 | 34104 ft | 405 kts | 299° |
| 2026-04-29 04:53 | 45.88610 | 22.74178 | 34092 ft | 404 kts | 300° |
| 2026-04-29 04:53 | 45.91508 | 22.67319 | 34101 ft | 407 kts | 300° |
| 2026-04-29 04:54 | 45.94450 | 22.60340 | 34110 ft | 406 kts | 300° |
| 2026-04-29 04:54 | 45.97372 | 22.53390 | 34102 ft | 406 kts | 300° |
| 2026-04-29 04:55 | 46.00268 | 22.46483 | 34110 ft | 407 kts | 300° |
| 2026-04-29 04:55 | 46.03175 | 22.39534 | 34107 ft | 404 kts | 300° |
| 2026-04-29 04:56 | 46.06083 | 22.32566 | 34113 ft | 405 kts | 299° |
| 2026-04-29 04:56 | 46.08977 | 22.25613 | 34125 ft | 405 kts | 299° |
| 2026-04-29 04:57 | 46.11854 | 22.18684 | 34132 ft | 405 kts | 299° |
| 2026-04-29 04:57 | 46.14687 | 22.11843 | 34135 ft | 405 kts | 299° |
| 2026-04-29 04:58 | 46.17549 | 22.04917 | 34125 ft | 404 kts | 300° |
| 2026-04-29 04:58 | 46.20434 | 21.97916 | 34133 ft | 403 kts | 299° |
| 2026-04-29 04:59 | 46.23284 | 21.90981 | 34133 ft | 403 kts | 299° |
| 2026-04-29 04:59 | 46.26136 | 21.84025 | 34136 ft | 404 kts | 300° |
| 2026-04-29 05:00 | 46.28992 | 21.77043 | 34135 ft | 401 kts | 300° |
| 2026-04-29 05:00 | 46.31829 | 21.70089 | 34129 ft | 402 kts | 300° |
| 2026-04-29 05:01 | 46.34664 | 21.63124 | 34136 ft | 402 kts | 300° |
| 2026-04-29 05:01 | 46.37490 | 21.56163 | 34144 ft | 399 kts | 299° |
| 2026-04-29 05:02 | 46.40325 | 21.49160 | 34144 ft | 402 kts | 299° |
| 2026-04-29 05:02 | 46.43148 | 21.42170 | 34134 ft | 401 kts | 299° |
| 2026-04-29 05:03 | 46.45952 | 21.35209 | 34147 ft | 399 kts | 300° |
| 2026-04-29 05:03 | 46.48771 | 21.28192 | 34155 ft | 399 kts | 299° |
| 2026-04-29 05:04 | 46.51684 | 21.21385 | 34161 ft | 400 kts | 302° |
| 2026-04-29 05:04 | 46.54668 | 21.14742 | 34164 ft | 400 kts | 302° |
| 2026-04-29 05:05 | 46.57719 | 21.07899 | 34156 ft | 398 kts | 302° |
| 2026-04-29 05:05 | 46.60728 | 21.01119 | 34158 ft | 398 kts | 302° |
| 2026-04-29 05:06 | 46.63748 | 20.94289 | 34154 ft | 399 kts | 302° |
| 2026-04-29 05:06 | 46.66768 | 20.87438 | 34153 ft | 398 kts | 302° |
| 2026-04-29 05:07 | 46.69779 | 20.80587 | 34149 ft | 400 kts | 302° |
| 2026-04-29 05:07 | 46.72806 | 20.73683 | 34167 ft | 397 kts | 302° |
| 2026-04-29 05:08 | 46.75817 | 20.66798 | 34156 ft | 399 kts | 302° |
| 2026-04-29 05:08 | 46.78770 | 20.60027 | 34154 ft | 400 kts | 302° |
| 2026-04-29 05:09 | 46.81764 | 20.53146 | 34153 ft | 399 kts | 302° |
| 2026-04-29 05:09 | 46.84737 | 20.46297 | 34153 ft | 401 kts | 302° |
| 2026-04-29 05:10 | 46.87714 | 20.39422 | 34158 ft | 400 kts | 302° |
| 2026-04-29 05:10 | 46.90671 | 20.32575 | 34172 ft | 401 kts | 302° |
| 2026-04-29 05:11 | 46.93673 | 20.25606 | 34169 ft | 402 kts | 302° |
| 2026-04-29 05:11 | 46.96635 | 20.18713 | 34168 ft | 400 kts | 302° |
| 2026-04-29 05:12 | 46.99601 | 20.11793 | 34174 ft | 402 kts | 302° |
| 2026-04-29 05:12 | 47.02583 | 20.04819 | 34175 ft | 400 kts | 302° |
| 2026-04-29 05:13 | 47.05546 | 19.97872 | 34170 ft | 403 kts | 303° |
| 2026-04-29 05:13 | 47.08441 | 19.91066 | 34175 ft | 404 kts | 302° |
| 2026-04-29 05:14 | 47.11369 | 19.84168 | 34184 ft | 402 kts | 302° |
| 2026-04-29 05:14 | 47.14295 | 19.77256 | 34190 ft | 403 kts | 302° |
| 2026-04-29 05:15 | 47.17127 | 19.70547 | 34182 ft | 404 kts | 302° |
| 2026-04-29 05:15 | 47.20066 | 19.63571 | 34183 ft | 403 kts | 302° |
| 2026-04-29 05:16 | 47.23037 | 19.56499 | 34186 ft | 404 kts | 302° |
| 2026-04-29 05:16 | 47.26009 | 19.49406 | 34188 ft | 405 kts | 302° |
| 2026-04-29 05:17 | 47.28959 | 19.42347 | 34189 ft | 405 kts | 302° |
| 2026-04-29 05:17 | 47.31925 | 19.35231 | 34194 ft | 406 kts | 302° |
| 2026-04-29 05:18 | 47.34863 | 19.28165 | 34207 ft | 408 kts | 301° |
| 2026-04-29 05:18 | 47.37793 | 19.21099 | 34210 ft | 407 kts | 301° |
| 2026-04-29 05:19 | 47.40736 | 19.13984 | 34211 ft | 407 kts | 301° |
| 2026-04-29 05:19 | 47.43695 | 19.06810 | 34212 ft | 406 kts | 301° |
| 2026-04-29 05:20 | 47.46670 | 18.99579 | 34208 ft | 406 kts | 301° |
| 2026-04-29 05:20 | 47.49628 | 18.92372 | 34205 ft | 405 kts | 301° |
| 2026-04-29 05:21 | 47.52565 | 18.85196 | 34206 ft | 406 kts | 301° |
| 2026-04-29 05:21 | 47.55493 | 18.78023 | 34204 ft | 406 kts | 301° |
| 2026-04-29 05:22 | 47.58427 | 18.70816 | 34208 ft | 407 kts | 301° |
| 2026-04-29 05:22 | 47.61339 | 18.63643 | 34207 ft | 409 kts | 301° |
| 2026-04-29 05:23 | 47.64268 | 18.56411 | 34204 ft | 409 kts | 301° |
| 2026-04-29 05:23 | 47.67206 | 18.49136 | 34215 ft | 408 kts | 301° |
| 2026-04-29 05:24 | 47.70120 | 18.41901 | 34208 ft | 408 kts | 301° |
| 2026-04-29 05:24 | 47.73040 | 18.34633 | 34206 ft | 409 kts | 300° |
| 2026-04-29 05:25 | 47.75644 | 18.27287 | 34214 ft | 409 kts | 297° |
| 2026-04-29 05:25 | 47.78229 | 18.19709 | 34207 ft | 409 kts | 297° |
| 2026-04-29 05:26 | 47.80790 | 18.12177 | 34206 ft | 409 kts | 297° |
| 2026-04-29 05:26 | 47.83385 | 18.04519 | 34206 ft | 411 kts | 297° |
| 2026-04-29 05:27 | 47.85940 | 17.96959 | 34207 ft | 409 kts | 297° |
| 2026-04-29 05:27 | 47.89774 | 17.85572 | 34214 ft | 410 kts | 297° |
| 2026-04-29 05:28 | 47.92321 | 17.77979 | 34207 ft | 409 kts | 297° |
| 2026-04-29 05:28 | 47.94852 | 17.70411 | 34206 ft | 410 kts | 297° |
| 2026-04-29 05:29 | 47.97384 | 17.62818 | 34203 ft | 409 kts | 297° |
| 2026-04-29 05:29 | 47.99908 | 17.55223 | 34202 ft | 408 kts | 297° |
| 2026-04-29 05:30 | 48.02430 | 17.47618 | 34197 ft | 410 kts | 297° |
| 2026-04-29 05:30 | 48.04954 | 17.39980 | 34199 ft | 407 kts | 297° |
| 2026-04-29 05:31 | 48.07446 | 17.32419 | 34213 ft | 409 kts | 296° |
| 2026-04-29 05:31 | 48.09902 | 17.24942 | 34216 ft | 409 kts | 297° |
| 2026-04-29 05:32 | 48.11827 | 17.19070 | 34230 ft | 411 kts | 297° |
| 2026-04-29 05:32 | 48.13578 | 17.13714 | 34237 ft | 408 kts | 296° |
| 2026-04-29 05:33 | 48.15387 | 17.08167 | 34226 ft | 409 kts | 297° |
| 2026-04-29 05:34 | 48.17896 | 17.00459 | 34241 ft | 410 kts | 297° |
| 2026-04-29 05:34 | 48.20467 | 16.92936 | 34244 ft | 411 kts | 300° |
| 2026-04-29 05:35 | 48.23368 | 16.85437 | 34235 ft | 411 kts | 301° |
| 2026-04-29 05:35 | 48.26242 | 16.77934 | 34236 ft | 413 kts | 300° |
| 2026-04-29 05:36 | 48.29075 | 16.70485 | 34255 ft | 412 kts | 300° |
| 2026-04-29 05:36 | 48.31926 | 16.62946 | 34237 ft | 411 kts | 300° |
| 2026-04-29 05:37 | 48.34767 | 16.55407 | 34245 ft | 413 kts | 301° |
| 2026-04-29 05:37 | 48.37642 | 16.47748 | 34244 ft | 414 kts | 300° |
| 2026-04-29 05:38 | 48.40488 | 16.40144 | 34250 ft | 414 kts | 301° |
| 2026-04-29 05:38 | 48.43350 | 16.32477 | 34227 ft | 414 kts | 300° |
| 2026-04-29 05:39 | 48.46184 | 16.24860 | 34248 ft | 414 kts | 300° |
| 2026-04-29 05:39 | 48.49008 | 16.17247 | 34250 ft | 417 kts | 300° |
| 2026-04-29 05:40 | 48.51834 | 16.09606 | 34242 ft | 414 kts | 300° |
| 2026-04-29 05:40 | 48.54676 | 16.01902 | 34251 ft | 417 kts | 300° |
| 2026-04-29 05:41 | 48.57519 | 15.94169 | 34233 ft | 417 kts | 300° |
| 2026-04-29 05:41 | 48.60379 | 15.86369 | 34232 ft | 421 kts | 300° |
| 2026-04-29 05:42 | 48.63235 | 15.78556 | 34246 ft | 423 kts | 300° |
| 2026-04-29 05:42 | 48.66086 | 15.70734 | 34221 ft | 421 kts | 300° |
| 2026-04-29 05:43 | 48.68942 | 15.62874 | 34219 ft | 423 kts | 300° |
| 2026-04-29 05:43 | 48.71905 | 15.55111 | 34204 ft | 421 kts | 303° |
| 2026-04-29 05:44 | 48.75090 | 15.47490 | 34218 ft | 424 kts | 303° |
| 2026-04-29 05:44 | 48.78289 | 15.39769 | 34212 ft | 427 kts | 303° |
| 2026-04-29 05:45 | 48.81466 | 15.32046 | 34227 ft | 426 kts | 302° |
| 2026-04-29 05:45 | 48.84457 | 15.24745 | 34226 ft | 426 kts | 302° |
| 2026-04-29 05:46 | 48.87640 | 15.16944 | 34234 ft | 427 kts | 302° |
| 2026-04-29 05:46 | 48.90979 | 15.09409 | 34243 ft | 429 kts | 308° |
| 2026-04-29 05:47 | 48.94726 | 15.02407 | 34235 ft | 430 kts | 309° |
| 2026-04-29 05:47 | 48.96654 | 14.98803 | 34228 ft | 431 kts | 309° |
| 2026-04-29 05:48 | 49.02175 | 14.88446 | 34244 ft | 431 kts | 309° |
| 2026-04-29 05:48 | 49.05954 | 14.81329 | 34245 ft | 429 kts | 309° |
| 2026-04-29 05:49 | 49.09727 | 14.74202 | 34247 ft | 430 kts | 309° |
| 2026-04-29 05:49 | 49.13514 | 14.67029 | 34259 ft | 430 kts | 308° |
| 2026-04-29 05:50 | 49.17162 | 14.60099 | 34255 ft | 431 kts | 309° |
| 2026-04-29 05:50 | 49.20865 | 14.53046 | 34255 ft | 431 kts | 309° |
| 2026-04-29 05:51 | 49.24544 | 14.46020 | 34250 ft | 432 kts | 309° |
| 2026-04-29 05:51 | 49.28323 | 14.38786 | 34249 ft | 431 kts | 309° |
| 2026-04-29 05:52 | 49.31959 | 14.31804 | 34260 ft | 434 kts | 308° |
| 2026-04-29 05:52 | 49.35506 | 14.24977 | 34263 ft | 434 kts | 308° |
| 2026-04-29 05:53 | 49.37017 | 14.22063 | 34264 ft | 434 kts | 308° |
| 2026-04-29 05:53 | 49.40495 | 14.15343 | 34261 ft | 434 kts | 308° |
| 2026-04-29 05:54 | 49.44252 | 14.08065 | 34258 ft | 434 kts | 308° |
| 2026-04-29 05:54 | 49.48043 | 14.00701 | 34256 ft | 435 kts | 308° |
| 2026-04-29 05:55 | 49.51795 | 13.93394 | 34254 ft | 437 kts | 308° |
| 2026-04-29 05:55 | 49.55599 | 13.85964 | 34264 ft | 437 kts | 309° |
| 2026-04-29 05:56 | 49.59402 | 13.78514 | 34257 ft | 437 kts | 309° |
| 2026-04-29 05:56 | 49.63209 | 13.71037 | 34258 ft | 437 kts | 309° |
| 2026-04-29 05:57 | 49.67017 | 13.63535 | 34263 ft | 438 kts | 309° |
| 2026-04-29 05:57 | 49.70821 | 13.56021 | 34271 ft | 440 kts | 309° |
| 2026-04-29 05:58 | 49.74615 | 13.48505 | 34273 ft | 439 kts | 309° |
| 2026-04-29 05:58 | 49.78425 | 13.40935 | 34264 ft | 439 kts | 309° |
| 2026-04-29 05:59 | 49.82196 | 13.33421 | 34269 ft | 442 kts | 308° |
| 2026-04-29 05:59 | 49.85984 | 13.25854 | 34269 ft | 440 kts | 308° |
| 2026-04-29 06:00 | 49.89704 | 13.18399 | 34267 ft | 442 kts | 308° |
| 2026-04-29 06:00 | 49.93425 | 13.10920 | 34254 ft | 441 kts | 308° |
| 2026-04-29 06:01 | 49.97212 | 13.03290 | 34246 ft | 442 kts | 308° |
| 2026-04-29 06:01 | 50.01001 | 12.95632 | 34246 ft | 443 kts | 308° |
| 2026-04-29 06:02 | 50.04792 | 12.87947 | 34251 ft | 443 kts | 308° |
| 2026-04-29 06:02 | 50.08595 | 12.80216 | 34264 ft | 443 kts | 308° |
| 2026-04-29 06:03 | 50.12351 | 12.72557 | 34284 ft | 442 kts | 308° |
| 2026-04-29 06:03 | 50.15956 | 12.65186 | 34274 ft | 443 kts | 308° |
| 2026-04-29 06:04 | 50.19636 | 12.57640 | 34276 ft | 444 kts | 308° |
| 2026-04-29 06:04 | 50.23449 | 12.49799 | 34271 ft | 443 kts | 308° |
| 2026-04-29 06:05 | 50.27219 | 12.42022 | 34271 ft | 443 kts | 308° |
| 2026-04-29 06:05 | 50.30967 | 12.34309 | 34272 ft | 443 kts | 308° |
| 2026-04-29 06:06 | 50.34778 | 12.26540 | 34279 ft | 444 kts | 308° |
| 2026-04-29 06:06 | 50.38408 | 12.19116 | 34281 ft | 444 kts | 308° |
| 2026-04-29 06:07 | 50.42180 | 12.11374 | 34280 ft | 445 kts | 308° |
| 2026-04-29 06:07 | 50.46010 | 12.03491 | 34286 ft | 446 kts | 308° |
| 2026-04-29 06:08 | 50.49802 | 11.95660 | 34292 ft | 447 kts | 308° |
| 2026-04-29 06:08 | 50.53619 | 11.87755 | 34290 ft | 447 kts | 308° |
| 2026-04-29 06:09 | 50.57377 | 11.79947 | 34289 ft | 447 kts | 308° |
| 2026-04-29 06:09 | 50.61103 | 11.72183 | 34287 ft | 447 kts | 308° |
| 2026-04-29 06:10 | 50.64865 | 11.64319 | 34282 ft | 447 kts | 308° |
| 2026-04-29 06:10 | 50.68612 | 11.56465 | 34287 ft | 449 kts | 308° |
| 2026-04-29 06:11 | 50.72358 | 11.48588 | 34290 ft | 450 kts | 308° |
| 2026-04-29 06:11 | 50.76085 | 11.40728 | 34296 ft | 449 kts | 308° |
| 2026-04-29 06:12 | 50.79790 | 11.32889 | 34291 ft | 448 kts | 308° |
| 2026-04-29 06:12 | 50.83565 | 11.24880 | 34302 ft | 448 kts | 308° |
| 2026-04-29 06:13 | 50.86965 | 11.17644 | 34301 ft | 449 kts | 308° |
| 2026-04-29 06:13 | 50.90684 | 11.09708 | 34314 ft | 449 kts | 308° |
| 2026-04-29 06:14 | 50.94408 | 11.01735 | 34322 ft | 450 kts | 308° |
| 2026-04-29 06:14 | 50.98114 | 10.93777 | 34328 ft | 451 kts | 308° |
| 2026-04-29 06:15 | 51.01839 | 10.85754 | 34317 ft | 450 kts | 308° |
| 2026-04-29 06:15 | 51.05574 | 10.77684 | 34328 ft | 451 kts | 308° |
| 2026-04-29 06:16 | 51.09330 | 10.69544 | 34322 ft | 450 kts | 308° |
| 2026-04-29 06:16 | 51.13053 | 10.61450 | 34332 ft | 451 kts | 309° |
| 2026-04-29 06:17 | 51.16536 | 10.53856 | 34336 ft | 452 kts | 309° |
| 2026-04-29 06:17 | 51.20213 | 10.45814 | 34330 ft | 452 kts | 309° |
| 2026-04-29 06:18 | 51.23951 | 10.37610 | 34323 ft | 452 kts | 309° |
| 2026-04-29 06:18 | 51.27046 | 10.28696 | 34322 ft | 458 kts | 299° |
| 2026-04-29 06:19 | 51.29722 | 10.19965 | 34327 ft | 458 kts | 300° |
| 2026-04-29 06:19 | 51.32424 | 10.11095 | 34330 ft | 460 kts | 300° |
| 2026-04-29 06:20 | 51.35242 | 10.01800 | 34339 ft | 461 kts | 300° |
| 2026-04-29 06:20 | 51.38030 | 9.92565 | 34333 ft | 459 kts | 300° |
| 2026-04-29 06:21 | 51.40847 | 9.83197 | 34328 ft | 462 kts | 300° |
| 2026-04-29 06:21 | 51.43665 | 9.73789 | 34336 ft | 464 kts | 300° |
| 2026-04-29 06:22 | 51.46421 | 9.64546 | 34334 ft | 464 kts | 301° |
| 2026-04-29 06:22 | 51.48998 | 9.55876 | 34336 ft | 466 kts | 301° |
| 2026-04-29 06:23 | 51.51488 | 9.47463 | 34340 ft | 465 kts | 301° |
| 2026-04-29 06:23 | 51.54081 | 9.38675 | 34357 ft | 466 kts | 301° |
| 2026-04-29 06:24 | 51.56805 | 9.29408 | 34334 ft | 468 kts | 300° |
| 2026-04-29 06:24 | 51.59557 | 9.20011 | 34325 ft | 471 kts | 301° |
| 2026-04-29 06:25 | 51.61864 | 9.12104 | 34320 ft | 473 kts | 301° |
| 2026-04-29 06:25 | 51.64473 | 9.03124 | 34338 ft | 473 kts | 301° |
| 2026-04-29 06:26 | 51.67307 | 8.93339 | 34326 ft | 475 kts | 301° |
| 2026-04-29 06:26 | 51.70109 | 8.83619 | 34341 ft | 476 kts | 301° |
| 2026-04-29 06:27 | 51.72933 | 8.73788 | 34340 ft | 479 kts | 301° |
| 2026-04-29 06:27 | 51.75733 | 8.63994 | 34343 ft | 478 kts | 301° |
| 2026-04-29 06:28 | 51.78525 | 8.54191 | 34333 ft | 479 kts | 301° |
| 2026-04-29 06:28 | 51.81284 | 8.44465 | 34352 ft | 483 kts | 301° |
| 2026-04-29 06:29 | 51.84103 | 8.34483 | 34343 ft | 482 kts | 301° |
| 2026-04-29 06:29 | 51.86895 | 8.24559 | 34340 ft | 489 kts | 301° |
| 2026-04-29 06:30 | 51.91073 | 8.09620 | 34347 ft | 489 kts | 301° |
| 2026-04-29 06:31 | 51.93823 | 7.99740 | 34348 ft | 490 kts | 301° |
| 2026-04-29 06:31 | 51.96625 | 7.89624 | 34349 ft | 491 kts | 301° |
| 2026-04-29 06:32 | 51.99433 | 7.79442 | 34349 ft | 492 kts | 301° |
| 2026-04-29 06:32 | 52.02238 | 7.69230 | 34352 ft | 493 kts | 301° |
| 2026-04-29 06:32 | 52.03607 | 7.64220 | 33998 ft | 486 kts | 301° |
| 2026-04-29 06:33 | 52.04972 | 7.59223 | 33041 ft | 490 kts | 301° |
| 2026-04-29 06:33 | 52.06371 | 7.54094 | 32142 ft | 492 kts | 301° |
| 2026-04-29 06:33 | 52.07746 | 7.49042 | 31321 ft | 492 kts | 301° |
| 2026-04-29 06:33 | 52.09127 | 7.43951 | 30702 ft | 488 kts | 301° |
| 2026-04-29 06:34 | 52.10466 | 7.38996 | 30272 ft | 480 kts | 301° |
| 2026-04-29 06:34 | 52.11818 | 7.33985 | 29791 ft | 479 kts | 300° |
| 2026-04-29 06:34 | 52.13159 | 7.29035 | 29260 ft | 493 kts | 300° |
| 2026-04-29 06:34 | 52.14534 | 7.23925 | 28703 ft | 490 kts | 300° |
| 2026-04-29 06:35 | 52.15884 | 7.18888 | 28171 ft | 484 kts | 299° |
| 2026-04-29 06:35 | 52.17224 | 7.13877 | 27629 ft | 478 kts | 299° |
| 2026-04-29 06:35 | 52.18533 | 7.08976 | 27104 ft | 472 kts | 299° |
| 2026-04-29 06:35 | 52.19813 | 7.04170 | 26577 ft | 466 kts | 299° |
| 2026-04-29 06:36 | 52.21123 | 6.99423 | 26048 ft | 457 kts | 303° |
| 2026-04-29 06:36 | 52.22741 | 6.95073 | 25518 ft | 444 kts | 312° |
| 2026-04-29 06:36 | 52.24645 | 6.91152 | 24999 ft | 435 kts | 316° |
| 2026-04-29 06:36 | 52.26576 | 6.87370 | 24491 ft | 430 kts | 316° |
| 2026-04-29 06:37 | 52.28462 | 6.83663 | 23985 ft | 426 kts | 316° |
| 2026-04-29 06:37 | 52.30305 | 6.80018 | 23479 ft | 421 kts | 315° |
| 2026-04-29 06:37 | 52.32145 | 6.76359 | 22970 ft | 417 kts | 315° |
| 2026-04-29 06:37 | 52.33974 | 6.72709 | 22461 ft | 415 kts | 315° |
| 2026-04-29 06:38 | 52.35826 | 6.69007 | 21939 ft | 424 kts | 314° |
| 2026-04-29 06:38 | 52.37680 | 6.65284 | 21400 ft | 422 kts | 314° |
| 2026-04-29 06:38 | 52.39554 | 6.61508 | 20848 ft | 417 kts | 314° |
| 2026-04-29 06:38 | 52.41374 | 6.57830 | 20315 ft | 413 kts | 314° |
| 2026-04-29 06:39 | 52.43171 | 6.54194 | 19785 ft | 408 kts | 314° |
| 2026-04-29 06:39 | 52.44891 | 6.50368 | 19249 ft | 408 kts | 306° |
| 2026-04-29 06:39 | 52.46171 | 6.46152 | 18711 ft | 410 kts | 296° |
| 2026-04-29 06:39 | 52.46962 | 6.41658 | 18179 ft | 412 kts | 285° |
| 2026-04-29 06:40 | 52.47321 | 6.36949 | 17645 ft | 410 kts | 279° |
| 2026-04-29 06:40 | 52.47537 | 6.32917 | 17175 ft | 408 kts | 278° |
| 2026-04-29 06:40 | 52.47598 | 6.31727 | 17033 ft | 407 kts | 278° |
| 2026-04-29 06:40 | 52.47765 | 6.28467 | 16651 ft | 405 kts | 278° |
| 2026-04-29 06:41 | 52.47998 | 6.23832 | 16111 ft | 402 kts | 277° |
| 2026-04-29 06:41 | 52.48140 | 6.20996 | 15779 ft | 400 kts | 277° |
| 2026-04-29 06:41 | 52.48246 | 6.18854 | 15527 ft | 398 kts | 277° |
| 2026-04-29 06:41 | 52.48420 | 6.15310 | 15115 ft | 396 kts | 277° |
| 2026-04-29 06:42 | 52.48577 | 6.12081 | 14732 ft | 393 kts | 277° |
| 2026-04-29 06:42 | 52.48758 | 6.08357 | 14292 ft | 391 kts | 277° |
| 2026-04-29 06:42 | 52.48967 | 6.03995 | 13771 ft | 388 kts | 277° |
| 2026-04-29 06:42 | 52.49169 | 5.99733 | 13266 ft | 385 kts | 277° |
| 2026-04-29 06:43 | 52.49365 | 5.95592 | 12761 ft | 382 kts | 277° |
| 2026-04-29 06:43 | 52.49567 | 5.91299 | 12246 ft | 379 kts | 277° |
| 2026-04-29 06:43 | 52.49761 | 5.87117 | 11738 ft | 376 kts | 277° |
| 2026-04-29 06:43 | 52.49949 | 5.83039 | 11286 ft | 371 kts | 277° |
| 2026-04-29 06:44 | 52.50139 | 5.78871 | 11181 ft | 356 kts | 277° |
| 2026-04-29 06:44 | 52.50320 | 5.74857 | 11113 ft | 341 kts | 277° |
| 2026-04-29 06:44 | 52.50491 | 5.71053 | 10981 ft | 328 kts | 277° |
| 2026-04-29 06:44 | 52.50548 | 5.69798 | 10954 ft | 324 kts | 277° |
| 2026-04-29 06:45 | 52.50941 | 5.60959 | 10619 ft | 298 kts | 277° |
| 2026-04-29 06:45 | 52.51013 | 5.57604 | 10481 ft | 290 kts | 265° |
| 2026-04-29 06:45 | 52.50565 | 5.54402 | 10266 ft | 289 kts | 254° |
| 2026-04-29 06:46 | 52.49910 | 5.51224 | 10162 ft | 295 kts | 252° |
| 2026-04-29 06:46 | 52.49218 | 5.48016 | 10057 ft | 295 kts | 252° |
| 2026-04-29 06:46 | 52.48529 | 5.44839 | 9944 ft | 295 kts | 252° |
| 2026-04-29 06:46 | 52.47833 | 5.41618 | 9820 ft | 294 kts | 252° |
| 2026-04-29 06:47 | 52.47153 | 5.38469 | 9700 ft | 294 kts | 251° |
| 2026-04-29 06:47 | 52.46463 | 5.35283 | 9580 ft | 294 kts | 251° |
| 2026-04-29 06:47 | 52.45817 | 5.32299 | 9469 ft | 294 kts | 251° |
| 2026-04-29 06:47 | 52.45108 | 5.29037 | 9338 ft | 293 kts | 251° |
| 2026-04-29 06:48 | 52.44420 | 5.25867 | 9235 ft | 294 kts | 251° |
| 2026-04-29 06:48 | 52.43759 | 5.22831 | 9117 ft | 293 kts | 251° |
| 2026-04-29 06:48 | 52.43066 | 5.19657 | 9003 ft | 291 kts | 251° |
| 2026-04-29 06:48 | 52.42374 | 5.16485 | 8891 ft | 293 kts | 251° |
| 2026-04-29 06:49 | 52.41684 | 5.13329 | 8758 ft | 292 kts | 251° |
| 2026-04-29 06:49 | 52.41002 | 5.10215 | 8649 ft | 292 kts | 251° |
| 2026-04-29 06:49 | 52.40306 | 5.07043 | 8533 ft | 292 kts | 250° |
| 2026-04-29 06:49 | 52.39615 | 5.03898 | 8412 ft | 292 kts | 250° |
| 2026-04-29 06:50 | 52.38925 | 5.00763 | 8299 ft | 291 kts | 250° |
| 2026-04-29 06:50 | 52.38229 | 4.97607 | 8190 ft | 291 kts | 250° |
| 2026-04-29 06:50 | 52.37539 | 4.94478 | 8074 ft | 290 kts | 250° |
| 2026-04-29 06:50 | 52.36843 | 4.91329 | 7959 ft | 290 kts | 250° |
| 2026-04-29 06:51 | 52.36247 | 4.88638 | 7863 ft | 289 kts | 250° |
| 2026-04-29 06:51 | 52.35551 | 4.85500 | 7754 ft | 290 kts | 250° |
| 2026-04-29 06:51 | 52.34905 | 4.82589 | 7645 ft | 288 kts | 250° |
| 2026-04-29 06:51 | 52.34688 | 4.81612 | 7609 ft | 288 kts | 250° |
| 2026-04-29 06:52 | 52.33987 | 4.78461 | 7490 ft | 282 kts | 250° |
| 2026-04-29 06:52 | 52.33473 | 4.75427 | 7362 ft | 270 kts | 269° |
| 2026-04-29 06:52 | 52.33610 | 4.72396 | 7078 ft | 269 kts | 283° |
| 2026-04-29 06:52 | 52.34005 | 4.69288 | 6285 ft | 288 kts | 286° |
| 2026-04-29 06:53 | 52.34424 | 4.66005 | 5485 ft | 304 kts | 276° |
| 2026-04-29 06:53 | 52.34154 | 4.62574 | 4793 ft | 305 kts | 247° |
| 2026-04-29 06:53 | 52.33187 | 4.59602 | 4712 ft | 288 kts | 237° |
| 2026-04-29 06:53 | 52.32139 | 4.56874 | 4669 ft | 277 kts | 236° |
| 2026-04-29 06:54 | 52.31095 | 4.54195 | 4477 ft | 271 kts | 236° |
| 2026-04-29 06:54 | 52.30069 | 4.51552 | 4199 ft | 270 kts | 236° |
| 2026-04-29 06:54 | 52.29047 | 4.48917 | 3885 ft | 270 kts | 235° |
| 2026-04-29 06:54 | 52.27964 | 4.46367 | 3546 ft | 268 kts | 221° |
| 2026-04-29 06:55 | 52.26430 | 4.44766 | 3220 ft | 253 kts | 191° |
| 2026-04-29 06:55 | 52.24737 | 4.44539 | 2991 ft | 232 kts | 162° |
| 2026-04-29 06:55 | 52.23288 | 4.45326 | 2972 ft | 209 kts | 148° |
| 2026-04-29 06:55 | 52.22078 | 4.46455 | 2978 ft | 185 kts | 131° |
| 2026-04-29 06:56 | 52.21353 | 4.48043 | 2970 ft | 164 kts | 109° |
| 2026-04-29 06:56 | 52.21052 | 4.49793 | 2972 ft | 158 kts | 100° |
| 2026-04-29 06:56 | 52.20830 | 4.51568 | 2966 ft | 154 kts | 90° |
| 2026-04-29 06:56 | 52.20996 | 4.53265 | 2919 ft | 150 kts | 69° |
| 2026-04-29 06:57 | 52.21529 | 4.54711 | 2721 ft | 145 kts | 61° |
| 2026-04-29 06:57 | 52.22058 | 4.56020 | 2551 ft | 138 kts | 62° |
| 2026-04-29 06:57 | 52.22572 | 4.57341 | 2377 ft | 133 kts | 62° |
| 2026-04-29 06:57 | 52.23077 | 4.58645 | 2209 ft | 134 kts | 62° |
| 2026-04-29 06:58 | 52.23593 | 4.59975 | 2017 ft | 133 kts | 62° |
| 2026-04-29 06:58 | 52.24100 | 4.61283 | 1833 ft | 132 kts | 62° |
| 2026-04-29 06:58 | 52.24600 | 4.62573 | 1655 ft | 131 kts | 62° |
| 2026-04-29 06:58 | 52.25097 | 4.63857 | 1467 ft | 135 kts | 62° |
| 2026-04-29 06:59 | 52.25598 | 4.65153 | 1278 ft | 133 kts | 62° |
| 2026-04-29 06:59 | 52.26109 | 4.66474 | 1090 ft | 136 kts | 62° |
| 2026-04-29 06:59 | 52.26594 | 4.67732 | 909 ft | 126 kts | 62° |
| 2026-04-29 06:59 | 52.27075 | 4.68964 | 729 ft | 128 kts | 61° |
| 2026-04-29 07:00 | 52.27552 | 4.70234 | 528 ft | 131 kts | 60° |
| 2026-04-29 07:00 | 52.28051 | 4.71525 | 345 ft | 135 kts | 59° |
| 2026-04-29 07:00 | 52.28568 | 4.72833 | 161 ft | 136 kts | 60° |
| 2026-04-29 07:00 | 52.29080 | 4.74166 | 12 ft | 132 kts | 60° |
| 2026-04-29 07:01 | 52.29507 | 4.75278 | 2 ft | 95 kts | 58° |
| 2026-04-29 07:01 | 52.29778 | 4.75979 | 2 ft | 56 kts | 59° |
| 2026-04-29 07:01 | 52.29941 | 4.76404 | 2 ft | 31 kts | 56° |
| 2026-04-29 07:01 | 52.30092 | 4.76598 | 2 ft | 19 kts | 26° |
| 2026-04-29 07:02 | 52.30203 | 4.76692 | 2 ft | 17 kts | 28° |
| 2026-04-29 07:02 | 52.30300 | 4.76796 | 2 ft | 16 kts | 50° |
| 2026-04-29 07:02 | 52.30362 | 4.76957 | 2 ft | 16 kts | 59° |
| 2026-04-29 07:02 | 52.30425 | 4.77120 | 2 ft | 16 kts | 57° |
| 2026-04-29 07:03 | 52.30487 | 4.77282 | 2 ft | 16 kts | 59° |
| 2026-04-29 07:03 | 52.30551 | 4.77447 | 2 ft | 17 kts | 57° |
| 2026-04-29 07:03 | 52.30634 | 4.77575 | 2 ft | 17 kts | 20° |
| 2026-04-29 07:03 | 52.30761 | 4.77598 | 2 ft | 19 kts | 4° |
| 2026-04-29 07:04 | 52.30896 | 4.77610 | 2 ft | 18 kts | 3° |
| 2026-04-29 07:04 | 52.31027 | 4.77623 | 2 ft | 18 kts | 4° |
| 2026-04-29 07:04 | 52.31157 | 4.77634 | 2 ft | 18 kts | 3° |
| 2026-04-29 07:04 | 52.31285 | 4.77646 | 2 ft | 18 kts | 4° |
| 2026-04-29 07:05 | 52.31415 | 4.77656 | 2 ft | 18 kts | 352° |
| 2026-04-29 07:05 | 52.31520 | 4.77549 | 2 ft | 17 kts | 313° |
| 2026-04-29 07:05 | 52.31578 | 4.77389 | 2 ft | 16 kts | 278° |
| 2026-04-29 07:05 | 52.31573 | 4.77196 | 2 ft | 17 kts | 266° |
| 2026-04-29 07:06 | 52.31566 | 4.76987 | 2 ft | 18 kts | 267° |
| 2026-04-29 07:06 | 52.31559 | 4.76779 | 2 ft | 17 kts | 267° |
| 2026-04-29 07:06 | 52.31517 | 4.76673 | 2 ft | 12 kts | 189° |
| 2026-04-29 07:06 | 52.31427 | 4.76618 | 2 ft | 14 kts | 212° |
| 2026-04-29 07:07 | 52.31347 | 4.76534 | 2 ft | 11 kts | 213° |
| 2026-04-29 07:07 | 52.31283 | 4.76467 | 2 ft | 6 kts | 212° |
| 2026-04-29 07:07 | 52.31245 | 4.76472 | 2 ft | 5 kts | 141° |
| 2026-04-29 07:07 | 52.31221 | 4.76525 | 2 ft | 5 kts | 123° |
| 2026-04-29 07:08 | 52.31207 | 4.76558 | 2 ft | 0 kts | 124° |
| 2026-04-29 07:08 | 52.31207 | 4.76559 | 2 ft | 0 kts | 124° |